Airfield :
LOGIN :

Register | Disclaimer

   EN    FR    IT 

 










Legend :    VFR   Marginal VFR   IFR   Intensive IFR   Very Intensive IFR
Visi :
Ceiling :
>= 8 km
>= 3000ft
5 to 8 km
1000 to 3000 ft
1500m to 5 km
500 to 1000 ft
800 to 1500m
200 to 500 ft
< 800m
< 200 ft
Symbols :   Thunderstorms  Fog  Heavy snow  Heavy precipitations  Wind > 20 kt
SIGMETs :     Misc.  Thunderstorms  Icing  Turbulence  Mountain Waves  Volcanic Ashes






- Airport Elevation : 2001 ft
- IATA code : MAD


LEMD - Madrid

CURRENT METAR :
  • 180030Z 07003KT 9999 FEW060 04/03 Q1010 R88/29//95 NOSIG

EXPIRED METARs :
  • 180000Z 14004KT 9999 FEW060 05/04 Q1010 R88/29//95 NOSIG
  • 172330Z 02003KT 310V060 9999 FEW060 06/03 Q1010 R88/29//95 NOSIG
  • 172300Z 35004KT 290V030 9999 FEW060 06/04 Q1009 R88/29//95 NOSIG
  • 172230Z 32005KT 9999 FEW060 07/03 Q1009 R88/29//95 NOSIG
  • 172200Z 31006KT 260V070 9999 FEW060 08/04 Q1009 R88/29//95 NOSIG

TAF TAF LEMD
Valid from the 18 at 00:00 until the 19 at 06:00 UTC


172300Z 1800/1906 33010KT 9999 FEW025 BKN045 TX12/1815Z TNM01/1906Z
PROB40
TEMPO 1800/1809 VRB05KT
PROB30
TEMPO 1800/1808 2500 BR BKN010
BECMG 1817/1820 CAVOK



MET'MAP, your aeronautical weather chart ! - Copyright ORBIFLY December 2007 - Disclaimer

ORBIFLY MET'MAP TEAM :

Programming & Development : Alexandra Zaïnal
Concept & Development : Baudouin d'Aumeries
Co-Development & Prog : Marc-Olivier Méhu
Technical & hardware support : Manuel Goepfert

Contact : metmap@orbifly.com




SOURCES & CREDITS :

   NOAA